Time;durP1;ratioP1;P1;durP2;ratioP2;P2;SDS_P1;SDS_P2;PMS_P1;PMS_P2;Temp;Humidity;BMP_temperature;BMP_pressure;BME280_temperature;BME280_humidity;BME280_pressure;Samples;Min_cycle;Max_cycle;Signal;HPM_P1;HPM_P2
2021/03/18 00:00:57;;;;;;;34.85;5.43;;;6.80;99.90;;;;;;5009043;28;20084;-57
2021/03/18 00:03:26;;;;;;;31.65;4.68;;;6.80;99.90;;;;;;5010148;28;20029;-57
2021/03/18 00:05:54;;;;;;;32.33;5.28;;;6.90;99.90;;;;;;5009565;28;20105;-57
2021/03/18 00:08:21;;;;;;;27.35;4.85;;;6.90;99.90;;;;;;5010304;28;20030;-56
2021/03/18 00:10:47;;;;;;;29.00;5.03;;;6.90;99.90;;;;;;5010391;28;20472;-51
2021/03/18 00:13:13;;;;;;;38.42;5.45;;;6.80;99.90;;;;;;5009888;28;20034;-55
2021/03/18 00:15:40;;;;;;;26.52;5.60;;;6.90;99.90;;;;;;5009645;28;20022;-55
2021/03/18 00:18:08;;;;;;;26.40;4.82;;;6.90;99.90;;;;;;5010566;28;20034;-52
2021/03/18 00:20:35;;;;;;;26.00;4.80;;;6.90;99.90;;;;;;4991882;28;20447;-56
2021/03/18 00:23:03;;;;;;;43.22;6.05;;;6.90;99.90;;;;;;5010714;28;20116;-54
2021/03/18 00:25:28;;;;;;;33.50;4.78;;;6.90;99.90;;;;;;5009539;28;20064;-54
2021/03/18 00:27:55;;;;;;;28.25;4.60;;;6.90;99.90;;;;;;5010088;28;20030;-54
2021/03/18 00:30:21;;;;;;;31.70;5.05;;;6.90;99.90;;;;;;5011481;28;20116;-53
2021/03/18 00:32:49;;;;;;;33.65;4.82;;;7.00;99.90;;;;;;5014261;28;20057;-55
2021/03/18 00:35:16;;;;;;;36.10;5.78;;;6.90;99.90;;;;;;5012731;28;20034;-57
2021/03/18 00:37:44;;;;;;;34.20;5.60;;;6.90;99.90;;;;;;5014170;28;20018;-53
2021/03/18 00:40:14;;;;;;;37.92;6.50;;;6.80;99.90;;;;;;5012874;28;20456;-55
2021/03/18 00:42:50;;;;;;;31.98;4.80;;;6.80;99.90;;;;;;5013841;28;20061;-55
2021/03/18 00:45:17;;;;;;;31.83;5.05;;;6.80;99.90;;;;;;5011847;28;20042;-54
2021/03/18 00:47:43;;;;;;;27.08;5.40;;;6.80;99.90;;;;;;5013310;28;20091;-52
2021/03/18 00:50:10;;;;;;;32.00;5.18;;;6.70;99.90;;;;;;5013251;28;20037;-57
2021/03/18 00:52:35;;;;;;;24.52;4.70;;;6.70;99.90;;;;;;5013554;28;20081;-53
2021/03/18 00:55:01;;;;;;;36.17;6.00;;;6.70;99.90;;;;;;5013091;28;20030;-56
2021/03/18 00:57:27;;;;;;;36.28;4.97;;;6.70;99.90;;;;;;5012670;28;20542;-55
2021/03/18 00:59:52;;;;;;;35.35;5.53;;;6.70;99.90;;;;;;5013161;28;20396;-58
2021/03/18 01:02:18;;;;;;;31.75;4.82;;;6.70;99.90;;;;;;5012878;28;20026;-52
2021/03/18 01:04:45;;;;;;;24.80;4.95;;;6.70;99.90;;;;;;5012575;28;20495;-54
2021/03/18 01:07:11;;;;;;;34.15;6.03;;;6.60;99.90;;;;;;5012678;28;20076;-54
2021/03/18 01:09:36;;;;;;;34.40;5.55;;;6.60;99.90;;;;;;5012885;28;20558;-53
2021/03/18 01:12:02;;;;;;;31.92;5.53;;;6.60;99.90;;;;;;5011437;28;20061;-53
2021/03/18 01:14:28;;;;;;;34.25;5.63;;;6.60;99.90;;;;;;5013213;28;20080;-55
2021/03/18 01:16:55;;;;;;;38.63;6.72;;;6.60;99.90;;;;;;5012339;28;20111;-53
2021/03/18 01:19:23;;;;;;;41.25;6.50;;;6.60;99.90;;;;;;5013766;28;20041;-52
2021/03/18 01:21:53;;;;;;;29.23;5.50;;;6.50;99.90;;;;;;5011639;28;20054;-53
2021/03/18 01:24:19;;;;;;;43.20;5.43;;;6.60;99.90;;;;;;5013319;28;20049;-53
2021/03/18 01:26:45;;;;;;;31.05;5.45;;;6.50;99.90;;;;;;5012302;28;20377;-56
2021/03/18 01:29:13;;;;;;;32.22;6.57;;;6.40;99.90;;;;;;5020228;28;20399;-52
2021/03/18 01:31:39;;;;;;;37.47;6.20;;;6.40;99.90;;;;;;5017595;28;20030;-52
2021/03/18 01:34:06;;;;;;;34.67;6.32;;;6.30;99.90;;;;;;5013249;28;20084;-57
2021/03/18 01:36:33;;;;;;;34.58;6.07;;;6.30;99.90;;;;;;5011782;28;20461;-53
2021/03/18 01:38:59;;;;;;;41.60;6.57;;;6.30;99.90;;;;;;5012561;28;20034;-52
2021/03/18 01:41:27;;;;;;;43.08;6.75;;;6.20;99.90;;;;;;5011604;28;20498;-54
2021/03/18 01:43:55;;;;;;;35.17;5.75;;;6.20;99.90;;;;;;5011530;28;20026;-54
2021/03/18 01:46:21;;;;;;;40.53;6.93;;;6.20;99.90;;;;;;5011962;28;20041;-54
2021/03/18 01:48:47;;;;;;;46.65;7.38;;;6.20;99.90;;;;;;5011979;28;20034;-57
2021/03/18 01:51:16;;;;;;;38.15;6.25;;;6.20;99.90;;;;;;5011581;28;20076;-56
2021/03/18 01:53:42;;;;;;;44.60;6.82;;;6.20;99.90;;;;;;5012430;28;20209;-53
2021/03/18 01:56:08;;;;;;;40.50;6.88;;;6.20;99.90;;;;;;4994107;28;20917;-57
2021/03/18 01:58:36;;;;;;;39.70;7.22;;;6.20;99.90;;;;;;5012496;28;20527;-56
2021/03/18 02:01:07;;;;;;;47.00;7.38;;;6.20;99.90;;;;;;5009837;28;20038;-54
2021/03/18 02:03:33;;;;;;;54.22;7.22;;;6.20;99.90;;;;;;5011863;28;20033;-56
2021/03/18 02:05:59;;;;;;;44.72;7.20;;;6.10;99.90;;;;;;5011856;28;20044;-57
2021/03/18 02:08:25;;;;;;;40.25;7.30;;;6.10;99.90;;;;;;5011889;28;20472;-56
2021/03/18 02:10:51;;;;;;;45.35;7.75;;;6.10;99.90;;;;;;5010839;28;20103;-53
2021/03/18 02:13:18;;;;;;;53.15;8.30;;;6.20;99.90;;;;;;5011587;28;20042;-54
2021/03/18 02:15:48;;;;;;;48.45;8.50;;;6.10;99.90;;;;;;5011142;28;20058;-56
2021/03/18 02:18:38;;;;;;;49.10;8.82;;;6.10;99.90;;;;;;5010972;28;20119;-54
2021/03/18 02:21:31;;;;;;;54.22;8.48;;;6.10;99.90;;;;;;5011430;28;20484;-54
2021/03/18 02:24:16;;;;;;;50.55;7.10;;;6.10;99.90;;;;;;5007172;28;20052;-55
2021/03/18 02:27:06;;;;;;;54.90;7.90;;;6.20;99.90;;;;;;5010724;28;20033;-55
2021/03/18 02:29:50;;;;;;;50.75;8.10;;;6.10;99.90;;;;;;5011240;28;20484;-51
2021/03/18 02:32:31;;;;;;;53.40;8.45;;;6.10;99.90;;;;;;5010903;28;20105;-55
2021/03/18 02:35:09;;;;;;;50.67;7.55;;;6.00;99.90;;;;;;5011749;28;20372;-53
2021/03/18 02:37:39;;;;;;;44.47;7.95;;;6.00;99.90;;;;;;5002352;28;20038;-54
2021/03/18 02:40:13;;;;;;;48.58;7.35;;;6.00;99.90;;;;;;5009532;28;20061;-51
2021/03/18 02:42:41;;;;;;;47.45;8.00;;;5.90;99.90;;;;;;5009618;28;20030;-52
2021/03/18 02:45:09;;;;;;;41.47;7.50;;;5.90;99.90;;;;;;5010444;28;20449;-51
2021/03/18 02:47:37;;;;;;;51.58;8.43;;;5.90;99.90;;;;;;5010144;28;20068;-54
2021/03/18 02:50:04;;;;;;;51.67;7.80;;;5.80;99.90;;;;;;5010982;28;20461;-56
2021/03/18 02:52:31;;;;;;;45.25;8.43;;;5.80;99.90;;;;;;5001102;28;20033;-54
2021/03/18 02:54:59;;;;;;;46.38;8.40;;;5.90;99.90;;;;;;5009997;28;20036;-53
2021/03/18 02:57:29;;;;;;;42.83;7.50;;;5.90;99.90;;;;;;5010363;28;20483;-55
2021/03/18 02:59:55;;;;;;;45.92;8.25;;;5.80;99.90;;;;;;5010725;28;20044;-53
2021/03/18 03:02:25;;;;;;;48.42;8.18;;;5.80;99.90;;;;;;5010943;28;20044;-57
2021/03/18 03:04:53;;;;;;;47.53;8.68;;;5.70;99.90;;;;;;5010635;28;20034;-54
2021/03/18 03:07:22;;;;;;;38.08;7.18;;;5.70;99.90;;;;;;5005506;28;20069;-54
2021/03/18 03:09:49;;;;;;;44.38;8.50;;;5.70;99.90;;;;;;5010946;28;20088;-53
2021/03/18 03:12:16;;;;;;;47.55;9.02;;;5.70;99.90;;;;;;5009068;28;20057;-54
2021/03/18 03:14:45;;;;;;;47.45;8.48;;;5.80;99.90;;;;;;5010843;28;20028;-55
2021/03/18 03:17:13;;;;;;;58.22;8.95;;;5.80;99.90;;;;;;5010461;28;20078;-53
2021/03/18 03:19:41;;;;;;;48.33;8.68;;;5.80;99.90;;;;;;5011315;28;20060;-53
2021/03/18 03:22:07;;;;;;;44.60;9.30;;;5.80;99.90;;;;;;5009375;28;20203;-53
2021/03/18 03:24:35;;;;;;;57.10;9.63;;;5.80;99.90;;;;;;5010694;28;20392;-55
2021/03/18 03:27:02;;;;;;;47.65;9.60;;;5.70;99.90;;;;;;5010188;28;20057;-51
2021/03/18 03:29:29;;;;;;;58.25;9.30;;;5.80;99.90;;;;;;5011118;28;20041;-52
2021/03/18 03:31:55;;;;;;;48.15;9.57;;;5.80;99.90;;;;;;5010535;28;20034;-54
2021/03/18 03:34:21;;;;;;;49.72;9.73;;;5.80;99.90;;;;;;5010621;28;20076;-56
2021/03/18 03:36:48;;;;;;;47.33;9.40;;;5.80;99.90;;;;;;5009879;28;20026;-53
2021/03/18 03:39:14;;;;;;;61.15;9.73;;;5.90;99.90;;;;;;5009272;28;20041;-53
2021/03/18 03:41:41;;;;;;;55.33;9.77;;;5.80;99.90;;;;;;5010116;28;20038;-53
2021/03/18 03:44:07;;;;;;;53.55;8.85;;;5.90;99.90;;;;;;5010567;28;20527;-53
2021/03/18 03:46:34;;;;;;;50.78;8.43;;;5.80;99.90;;;;;;5009439;28;20029;-55
2021/03/18 03:49:01;;;;;;;60.95;9.68;;;5.80;99.90;;;;;;5010876;28;20431;-52
2021/03/18 03:51:58;;;;;;;54.90;9.20;;;5.80;99.90;;;;;;5009875;28;20038;-53
2021/03/18 03:54:26;;;;;;;57.22;9.35;;;5.90;99.90;;;;;;5010404;28;20029;-55
2021/03/18 03:56:58;;;;;;;46.25;9.18;;;5.90;99.90;;;;;;5010301;28;20071;-53
2021/03/18 03:59:25;;;;;;;46.55;8.32;;;5.90;99.90;;;;;;5010857;28;20118;-53
2021/03/18 04:01:56;;;;;;;50.28;8.27;;;6.00;99.90;;;;;;5010352;28;20029;-53
2021/03/18 04:04:34;;;;;;;56.90;8.77;;;6.00;99.90;;;;;;5012237;28;20056;-55
2021/03/18 04:07:02;;;;;;;40.50;8.45;;;5.90;99.90;;;;;;5013316;28;20068;-53
2021/03/18 04:09:30;;;;;;;56.67;8.05;;;5.90;99.90;;;;;;5013547;28;20461;-53
2021/03/18 04:11:58;;;;;;;53.65;8.00;;;5.90;99.90;;;;;;5013098;28;20069;-56
2021/03/18 04:14:27;;;;;;;41.58;7.47;;;6.00;99.90;;;;;;5013758;28;20025;-57
2021/03/18 04:16:57;;;;;;;42.50;8.30;;;5.90;99.90;;;;;;5013625;28;20029;-54
2021/03/18 04:19:24;;;;;;;52.15;7.75;;;5.90;99.90;;;;;;5013351;28;20415;-56
2021/03/18 04:21:53;;;;;;;53.78;7.78;;;5.90;99.90;;;;;;5019082;28;20128;-54
2021/03/18 04:24:20;;;;;;;51.75;8.48;;;5.90;99.90;;;;;;5034079;28;20037;-54
2021/03/18 04:26:48;;;;;;;39.95;8.68;;;5.90;99.90;;;;;;5030851;28;20033;-53
2021/03/18 04:29:14;;;;;;;45.90;8.07;;;5.90;99.90;;;;;;5033826;28;20052;-53
2021/03/18 04:31:42;;;;;;;51.25;8.40;;;5.90;99.90;;;;;;5032291;28;20033;-55
2021/03/18 04:34:10;;;;;;;49.83;8.30;;;5.90;99.90;;;;;;5033122;28;20025;-54
2021/03/18 04:36:37;;;;;;;48.53;8.18;;;5.90;99.90;;;;;;5032803;28;20071;-51
2021/03/18 04:39:06;;;;;;;43.42;7.68;;;5.90;99.90;;;;;;5033546;28;20026;-58
2021/03/18 04:41:32;;;;;;;41.33;7.20;;;5.90;99.90;;;;;;5033583;28;20025;-55
2021/03/18 04:43:59;;;;;;;44.50;7.80;;;5.90;99.90;;;;;;5030458;28;20037;-57
2021/03/18 04:46:26;;;;;;;49.08;8.10;;;5.90;99.90;;;;;;5033782;28;20025;-56
2021/03/18 04:48:55;;;;;;;39.78;7.95;;;5.90;99.90;;;;;;5040624;28;20131;-54
2021/03/18 04:51:21;;;;;;;37.70;7.25;;;5.90;99.90;;;;;;5036481;28;20471;-55
2021/03/18 04:53:47;;;;;;;49.45;7.70;;;5.90;99.90;;;;;;5032561;28;20060;-53
2021/03/18 04:56:14;;;;;;;43.50;7.28;;;5.90;99.90;;;;;;5033311;28;20033;-55
2021/03/18 04:58:41;;;;;;;43.78;7.68;;;5.90;99.90;;;;;;5031576;28;20107;-55
2021/03/18 05:01:09;;;;;;;45.47;7.68;;;5.90;99.90;;;;;;5033486;28;20898;-53
2021/03/18 05:03:36;;;;;;;41.38;7.60;;;6.00;99.90;;;;;;5032103;28;20029;-57
2021/03/18 05:06:06;;;;;;;46.80;7.93;;;6.00;99.90;;;;;;5033502;28;20033;-52
2021/03/18 05:08:34;;;;;;;43.25;7.70;;;6.00;99.90;;;;;;5031179;28;20024;-55
2021/03/18 05:11:00;;;;;;;41.97;7.70;;;6.00;99.90;;;;;;5033102;28;20029;-54
2021/03/18 05:13:28;;;;;;;45.53;7.85;;;6.00;99.90;;;;;;5032384;28;20499;-53
2021/03/18 05:15:56;;;;;;;47.38;7.40;;;6.10;99.90;;;;;;5031792;28;20471;-57
2021/03/18 05:18:24;;;;;;;41.35;6.72;;;6.10;99.90;;;;;;5032259;28;20459;-51
2021/03/18 05:20:51;;;;;;;40.50;7.25;;;6.10;99.90;;;;;;5032923;28;20025;-51
2021/03/18 05:23:17;;;;;;;44.22;6.78;;;6.10;99.90;;;;;;5031826;28;20053;-55
2021/03/18 05:25:45;;;;;;;42.67;7.30;;;6.10;99.90;;;;;;5031039;28;20087;-56
2021/03/18 05:28:12;;;;;;;43.10;6.45;;;6.10;99.90;;;;;;5031809;28;20041;-55
2021/03/18 05:30:38;;;;;;;44.53;7.43;;;6.10;99.90;;;;;;5032547;28;20029;-55
2021/03/18 05:33:04;;;;;;;41.88;6.50;;;6.10;99.90;;;;;;5032015;28;20121;-51
2021/03/18 05:35:32;;;;;;;56.92;7.88;;;6.20;99.90;;;;;;5032607;28;20041;-54
2021/03/18 05:37:58;;;;;;;40.53;7.38;;;6.20;99.90;;;;;;5030110;28;20080;-53
2021/03/18 05:40:24;;;;;;;35.03;7.32;;;6.20;99.90;;;;;;5032465;28;20037;-55
2021/03/18 05:42:51;;;;;;;35.88;7.43;;;6.20;99.90;;;;;;5031752;28;20026;-54
2021/03/18 05:45:18;;;;;;;34.00;5.50;;;6.20;99.90;;;;;;5032840;28;20545;-55
2021/03/18 05:47:44;;;;;;;39.53;7.03;;;6.30;99.90;;;;;;5031327;28;20095;-55
2021/03/18 05:50:16;;;;;;;42.97;7.68;;;6.30;99.90;;;;;;5032645;28;20115;-55
2021/03/18 05:52:42;;;;;;;38.00;6.43;;;6.30;99.90;;;;;;5031068;28;20041;-56
2021/03/18 05:55:09;;;;;;;35.03;6.85;;;6.40;99.90;;;;;;5026499;28;20030;-55
2021/03/18 05:57:35;;;;;;;36.08;7.05;;;6.30;99.90;;;;;;5031299;28;20144;-54
2021/03/18 06:00:07;;;;;;;40.92;7.07;;;6.30;99.90;;;;;;5031722;28;20140;-56
2021/03/18 06:02:34;;;;;;;40.95;7.38;;;6.40;99.90;;;;;;5031606;28;20033;-57
2021/03/18 06:05:12;;;;;;;34.75;6.55;;;6.40;99.90;;;;;;5031759;28;20056;-57
2021/03/18 06:07:41;;;;;;;50.50;7.63;;;6.30;99.90;;;;;;5030831;28;20030;-54
2021/03/18 06:10:11;;;;;;;42.00;7.28;;;6.30;99.90;;;;;;5030893;28;20056;-53
2021/03/18 06:12:38;;;;;;;40.03;6.82;;;6.30;99.90;;;;;;5030722;28;20052;-53
2021/03/18 06:15:09;;;;;;;46.45;7.53;;;6.30;99.90;;;;;;5031963;28;20052;-57
2021/03/18 06:17:36;;;;;;;38.63;6.85;;;6.30;99.90;;;;;;5031093;28;20392;-56
2021/03/18 06:20:05;;;;;;;37.22;6.95;;;6.30;99.90;;;;;;5031991;28;20116;-55
2021/03/18 06:22:47;;;;;;;41.90;7.85;;;6.30;99.90;;;;;;5030749;28;20142;-57
2021/03/18 06:25:27;;;;;;;36.08;7.07;;;6.40;99.90;;;;;;5031350;28;20037;-56
2021/03/18 06:28:20;;;;;;;40.40;7.80;;;6.40;99.90;;;;;;5030071;28;20475;-54
2021/03/18 06:30:57;;;;;;;45.13;7.40;;;6.40;99.90;;;;;;5029887;28;20035;-56
2021/03/18 06:33:28;;;;;;;45.30;7.70;;;6.40;99.90;;;;;;5013382;28;20407;-53
2021/03/18 06:35:54;;;;;;;35.55;7.00;;;6.30;99.90;;;;;;5030912;28;20028;-57
2021/03/18 06:38:31;;;;;;;46.00;7.88;;;6.30;99.90;;;;;;5030039;28;20110;-55
2021/03/18 06:40:58;;;;;;;46.80;7.45;;;6.30;99.90;;;;;;5030792;28;20377;-55
2021/03/18 06:43:38;;;;;;;43.10;7.72;;;6.30;99.90;;;;;;5030463;28;20402;-55
2021/03/18 06:46:21;;;;;;;50.58;10.02;;;6.30;99.90;;;;;;5031414;28;20047;-56
2021/03/18 06:48:48;;;;;;;35.63;6.85;;;6.40;99.90;;;;;;5024182;28;20060;-55
2021/03/18 06:51:23;;;;;;;45.08;7.50;;;6.40;99.90;;;;;;5031114;28;20156;-54
2021/03/18 06:53:49;;;;;;;51.72;8.02;;;6.40;99.90;;;;;;5030338;28;20426;-53
2021/03/18 06:56:31;;;;;;;37.20;7.50;;;6.40;99.90;;;;;;5031111;28;20108;-52
2021/03/18 06:58:57;;;;;;;44.63;7.60;;;6.40;99.90;;;;;;5029689;28;20090;-54
2021/03/18 07:01:28;;;;;;;55.05;7.18;;;6.40;99.90;;;;;;5031112;28;20094;-54
2021/03/18 07:04:05;;;;;;;40.67;7.57;;;6.40;99.90;;;;;;5030194;28;20068;-53
2021/03/18 07:06:33;;;;;;;36.03;6.63;;;6.40;99.90;;;;;;5031007;28;20471;-53
2021/03/18 07:09:05;;;;;;;43.33;7.22;;;6.40;99.90;;;;;;5028944;28;20083;-59
2021/03/18 07:11:37;;;;;;;47.13;7.28;;;6.40;99.90;;;;;;5029875;28;20071;-55
2021/03/18 07:14:02;;;;;;;51.28;8.15;;;6.50;99.90;;;;;;5027705;28;20029;-52
2021/03/18 07:16:45;;;;;;;47.53;7.57;;;6.40;99.90;;;;;;5030512;28;20726;-52
2021/03/18 07:19:21;;;;;;;46.53;7.78;;;6.50;99.90;;;;;;5030766;28;20030;-57
2021/03/18 07:21:47;;;;;;;40.38;6.97;;;6.50;99.90;;;;;;5030138;28;20038;-50
2021/03/18 07:24:37;;;;;;;41.40;7.75;;;6.50;99.90;;;;;;5029279;28;20458;-57
2021/03/18 07:27:08;;;;;;;45.78;8.10;;;6.50;99.90;;;;;;5030258;28;20046;-54
2021/03/18 07:29:34;;;;;;;55.28;7.93;;;6.60;99.90;;;;;;5029245;28;20033;-54
2021/03/18 07:32:00;;;;;;;38.28;7.55;;;6.60;99.90;;;;;;5029027;28;20029;-54
2021/03/18 07:34:26;;;;;;;35.03;7.10;;;6.50;99.90;;;;;;5030361;28;20527;-53
2021/03/18 07:37:00;;;;;;;49.47;7.82;;;6.50;99.90;;;;;;5030935;28;20029;-52
2021/03/18 07:39:26;;;;;;;41.03;8.88;;;6.50;99.90;;;;;;5029420;28;20045;-59
2021/03/18 07:41:53;;;;;;;47.63;7.90;;;6.60;99.90;;;;;;5034147;28;20056;-55
2021/03/18 07:44:20;;;;;;;39.72;8.23;;;6.60;99.90;;;;;;5033203;28;20025;-52
2021/03/18 07:46:47;;;;;;;49.42;7.72;;;6.70;99.90;;;;;;5017042;28;20029;-54
2021/03/18 07:49:24;;;;;;;42.42;7.45;;;6.70;99.90;;;;;;5033050;28;20041;-54
2021/03/18 07:51:54;;;;;;;61.95;8.27;;;6.80;99.90;;;;;;5031984;28;20120;-51
2021/03/18 07:54:22;;;;;;;46.38;8.23;;;6.80;99.90;;;;;;5033038;28;20505;-52
2021/03/18 07:56:52;;;;;;;45.55;8.02;;;6.80;99.90;;;;;;5033846;28;20141;-53
2021/03/18 07:59:20;;;;;;;43.95;7.25;;;6.90;99.90;;;;;;5033349;28;20041;-53
2021/03/18 08:01:47;;;;;;;47.05;7.22;;;6.90;99.90;;;;;;5032574;28;20460;-57
2021/03/18 08:04:14;;;;;;;39.17;7.60;;;6.90;99.90;;;;;;5032532;28;20360;-56
2021/03/18 08:06:39;;;;;;;46.72;7.57;;;6.90;99.90;;;;;;5034097;28;20053;-54
2021/03/18 08:09:25;;;;;;;38.38;7.93;;;6.90;99.90;;;;;;5034241;28;20112;-54
2021/03/18 08:11:51;;;;;;;;;;;7.00;99.90;;;;;;5033284;28;20115;-53
2021/03/18 08:14:22;;;;;;;36.08;7.20;;;7.00;99.90;;;;;;5030325;28;19908;-55
2021/03/18 08:16:48;;;;;;;49.75;6.68;;;7.10;99.90;;;;;;5029502;28;20047;-56
2021/03/18 08:19:15;;;;;;;39.22;6.60;;;7.10;99.90;;;;;;5029356;28;20080;-54
2021/03/18 08:21:49;;;;;;;39.75;7.18;;;7.20;99.90;;;;;;5026875;28;20492;-54
2021/03/18 08:24:30;;;;;;;40.67;7.38;;;7.20;99.90;;;;;;5008974;28;20021;-54
2021/03/18 08:27:00;;;;;;;38.25;6.65;;;7.20;99.90;;;;;;5008855;28;20125;-56
2021/03/18 08:29:41;;;;;;;38.75;7.45;;;7.20;99.90;;;;;;5009311;28;20037;-54
2021/03/18 08:32:10;;;;;;;43.50;7.22;;;7.20;99.90;;;;;;5008920;28;20052;-57
2021/03/18 08:34:53;;;;;;;40.63;7.47;;;7.20;99.90;;;;;;5007497;28;20112;-54
2021/03/18 08:37:42;;;;;;;53.38;7.53;;;7.30;99.90;;;;;;5007327;28;20064;-56
2021/03/18 08:40:29;;;;;;;45.05;6.85;;;7.30;99.90;;;;;;5009635;28;20084;-54
2021/03/18 08:43:07;;;;;;;40.28;7.10;;;7.40;99.90;;;;;;5012726;28;20033;-57
2021/03/18 08:45:33;;;;;;;37.75;7.22;;;7.40;99.90;;;;;;5011225;28;20038;-54
2021/03/18 08:48:14;;;;;;;54.13;7.75;;;7.40;99.90;;;;;;5011027;28;20468;-54
2021/03/18 08:50:39;;;;;;;41.28;7.07;;;7.50;99.90;;;;;;5011101;28;20033;-55
2021/03/18 08:53:26;;;;;;;48.03;7.68;;;7.50;99.90;;;;;;5009989;28;20033;-54
2021/03/18 08:55:51;;;;;;;37.28;6.55;;;7.60;99.90;;;;;;5012609;28;20026;-58
2021/03/18 08:58:17;;;;;;;33.60;6.82;;;7.50;99.90;;;;;;5011970;28;20395;-56
2021/03/18 09:00:47;;;;;;;38.15;7.78;;;7.60;99.90;;;;;;5012813;28;20061;-52
2021/03/18 09:03:17;;;;;;;38.70;8.00;;;7.60;99.90;;;;;;5012573;28;20112;-56
2021/03/18 09:05:57;;;;;;;33.72;6.93;;;7.60;99.90;;;;;;5011259;28;20045;-57
2021/03/18 09:08:30;;;;;;;46.47;7.90;;;7.60;99.90;;;;;;5012084;28;20026;-55
2021/03/18 09:10:56;;;;;;;45.22;7.50;;;7.60;99.90;;;;;;5011444;28;20042;-52
2021/03/18 09:13:23;;;;;;;36.00;7.53;;;7.60;99.90;;;;;;5011713;28;20113;-55
2021/03/18 09:15:57;;;;;;;41.28;7.07;;;7.60;99.90;;;;;;5011031;28;20026;-55
2021/03/18 09:18:28;;;;;;;35.00;6.55;;;7.70;99.90;;;;;;5011042;28;20069;-55
2021/03/18 09:21:08;;;;;;;36.70;6.93;;;7.70;99.90;;;;;;5011596;28;20121;-55
2021/03/18 09:23:37;;;;;;;45.33;7.50;;;7.70;99.90;;;;;;5010596;28;20057;-52
2021/03/18 09:26:05;;;;;;;33.88;6.40;;;7.70;99.90;;;;;;5012528;28;20038;-55
2021/03/18 09:28:52;;;;;;;40.28;7.15;;;7.70;99.90;;;;;;5010659;28;20036;-55
2021/03/18 09:31:23;;;;;;;40.95;6.65;;;7.70;99.90;;;;;;5004321;28;20472;-57
2021/03/18 09:33:52;;;;;;;37.80;6.85;;;7.70;99.90;;;;;;5010539;28;20038;-56
2021/03/18 09:36:18;;;;;;;40.70;6.78;;;7.80;99.90;;;;;;5011498;28;20041;-53
2021/03/18 09:39:00;;;;;;;41.90;6.88;;;7.70;99.90;;;;;;5010900;28;20038;-54
2021/03/18 09:41:35;;;;;;;46.20;8.05;;;7.70;99.90;;;;;;5011389;28;20117;-55
2021/03/18 09:44:14;;;;;;;34.83;6.85;;;7.70;99.90;;;;;;5009737;28;20029;-57
2021/03/18 09:46:47;;;;;;;39.78;7.28;;;7.80;99.90;;;;;;5010541;28;20037;-55
2021/03/18 09:49:13;;;;;;;42.92;8.02;;;7.80;99.90;;;;;;5004828;28;20062;-53
2021/03/18 09:51:42;;;;;;;33.13;6.53;;;7.70;99.90;;;;;;5010615;28;20029;-56
2021/03/18 09:54:09;;;;;;;36.65;7.07;;;7.70;99.90;;;;;;5010554;28;20049;-56
2021/03/18 09:56:43;;;;;;;39.05;7.30;;;7.60;99.90;;;;;;5011479;28;20026;-54
2021/03/18 09:59:13;;;;;;;42.17;7.20;;;7.70;99.90;;;;;;5010337;28;20058;-55
2021/03/18 10:01:39;;;;;;;34.47;6.90;;;7.70;99.90;;;;;;5009730;28;20384;-55
2021/03/18 10:04:06;;;;;;;39.40;6.90;;;7.70;99.90;;;;;;5010524;28;20037;-55
2021/03/18 10:06:39;;;;;;;49.05;7.18;;;7.70;99.90;;;;;;5009962;28;20057;-54
2021/03/18 10:09:18;;;;;;;37.47;6.88;;;7.80;99.90;;;;;;5010876;28;20022;-53
2021/03/18 10:11:49;;;;;;;58.38;8.63;;;7.90;99.90;;;;;;5011084;28;20068;-56
2021/03/18 10:14:17;;;;;;;35.40;6.53;;;7.90;99.90;;;;;;5009899;28;20034;-54
2021/03/18 10:16:45;;;;;;;38.15;7.25;;;8.00;99.90;;;;;;5009472;28;20776;-55
2021/03/18 10:19:11;;;;;;;50.70;7.65;;;7.90;99.90;;;;;;5009287;28;20033;-57
2021/03/18 10:21:38;;;;;;;39.38;7.10;;;8.00;99.90;;;;;;5009838;28;20045;-57
2021/03/18 10:24:06;;;;;;;49.80;7.32;;;8.00;99.90;;;;;;5009750;28;20034;-55
2021/03/18 10:26:32;;;;;;;34.85;7.15;;;8.00;99.90;;;;;;5009870;28;20026;-56
2021/03/18 10:29:03;;;;;;;41.75;7.45;;;8.00;99.90;;;;;;5008436;28;20057;-55
2021/03/18 10:31:29;;;;;;;29.67;6.28;;;8.10;99.90;;;;;;5008367;28;20080;-53
2021/03/18 10:33:55;;;;;;;30.80;6.95;;;8.10;99.90;;;;;;5010437;28;20057;-57
2021/03/18 10:36:37;;;;;;;41.72;7.50;;;8.10;99.90;;;;;;5010343;28;20044;-55
2021/03/18 10:39:09;;;;;;;39.65;7.38;;;8.10;99.90;;;;;;5008975;28;20080;-57
2021/03/18 10:41:54;;;;;;;48.75;8.35;;;8.10;99.90;;;;;;5011046;28;20100;-55
2021/03/18 10:44:21;;;;;;;35.42;6.60;;;8.30;99.90;;;;;;4989992;28;20036;-54
2021/03/18 10:46:48;;;;;;;47.63;6.88;;;8.30;99.90;;;;;;5010684;28;20384;-57
2021/03/18 10:49:15;;;;;;;39.95;6.72;;;8.30;99.90;;;;;;5010237;28;20044;-54
2021/03/18 10:51:48;;;;;;;42.47;7.07;;;8.30;99.90;;;;;;5011508;28;20042;-56
2021/03/18 10:54:18;;;;;;;32.95;6.10;;;8.40;99.90;;;;;;5010075;28;20053;-55
2021/03/18 10:56:44;;;;;;;45.08;6.50;;;8.40;99.90;;;;;;5008197;28;20472;-56
2021/03/18 10:59:17;;;;;;;35.58;6.72;;;8.40;99.90;;;;;;5008904;28;20100;-53
2021/03/18 11:01:43;;;;;;;35.85;6.22;;;8.40;99.90;;;;;;5010117;28;20088;-53
2021/03/18 11:04:10;;;;;;;42.97;6.95;;;8.40;99.90;;;;;;5007931;28;20460;-56
2021/03/18 11:06:47;;;;;;;27.80;6.55;;;8.50;99.90;;;;;;5009412;28;20040;-56
2021/03/18 11:09:13;;;;;;;34.63;6.35;;;8.50;99.90;;;;;;5008002;28;20562;-56
2021/03/18 11:11:39;;;;;;;32.67;5.72;;;8.40;99.90;;;;;;5009108;28;20117;-57
2021/03/18 11:14:13;;;;;;;30.98;5.95;;;8.40;99.90;;;;;;5008632;28;20117;-54
2021/03/18 11:16:40;;;;;;;33.38;6.47;;;8.30;99.90;;;;;;5022690;28;20144;-57
2021/03/18 11:19:14;;;;;;;33.75;6.15;;;8.30;99.90;;;;;;5004467;28;20034;-54
2021/03/18 11:21:43;;;;;;;38.97;7.00;;;8.20;99.90;;;;;;5009909;28;20053;-54
2021/03/18 11:24:12;;;;;;;42.60;6.82;;;8.20;99.90;;;;;;5029472;28;20495;-54
2021/03/18 11:26:41;;;;;;;30.48;6.57;;;8.20;99.90;;;;;;5028140;28;20044;-53
2021/03/18 11:29:15;;;;;;;36.17;6.43;;;8.20;99.90;;;;;;5027368;28;20040;-55
2021/03/18 11:31:43;;;;;;;40.67;7.38;;;8.20;99.90;;;;;;5026319;28;20037;-56
2021/03/18 11:34:19;;;;;;;43.83;6.78;;;8.20;99.90;;;;;;5026510;28;20037;-51
2021/03/18 11:36:49;;;;;;;50.05;7.43;;;8.20;99.90;;;;;;5028983;28;20029;-55
2021/03/18 11:39:20;;;;;;;36.92;6.82;;;8.20;99.90;;;;;;5028659;28;20530;-55
2021/03/18 11:41:46;;;;;;;37.53;6.53;;;8.30;99.90;;;;;;5029208;28;20029;-55
2021/03/18 11:44:16;;;;;;;32.60;6.43;;;8.30;99.90;;;;;;5029176;28;20029;-59
2021/03/18 11:46:42;;;;;;;36.45;7.07;;;8.20;99.90;;;;;;5028068;28;20033;-55
2021/03/18 11:49:08;;;;;;;38.47;6.25;;;8.30;99.90;;;;;;5029460;28;20392;-54
2021/03/18 11:51:34;;;;;;;36.13;6.45;;;8.30;99.90;;;;;;5028236;28;20167;-58
2021/03/18 11:54:00;;;;;;;34.53;7.03;;;8.40;99.90;;;;;;5030455;28;20029;-57
2021/03/18 11:56:26;;;;;;;27.52;5.55;;;8.50;99.90;;;;;;5027795;28;20087;-56
2021/03/18 11:58:53;;;;;;;28.65;5.97;;;8.60;99.90;;;;;;5028138;28;20061;-52
2021/03/18 12:01:18;;;;;;;36.88;6.75;;;8.70;99.90;;;;;;5027785;28;20123;-56
2021/03/18 12:03:44;;;;;;;33.50;7.53;;;8.70;99.90;;;;;;5011013;28;20076;-55
2021/03/18 12:06:10;;;;;;;38.72;6.95;;;8.80;99.90;;;;;;5026164;28;20452;-58
2021/03/18 12:08:36;;;;;;;37.45;6.65;;;8.90;99.90;;;;;;5028866;28;20033;-54
2021/03/18 12:11:04;;;;;;;37.33;6.50;;;8.90;99.90;;;;;;5028523;28;20038;-56
2021/03/18 12:13:30;;;;;;;36.00;6.35;;;8.90;99.90;;;;;;5029198;28;20034;-53
2021/03/18 12:15:55;;;;;;;26.08;5.43;;;8.80;99.90;;;;;;5027447;28;20041;-59
2021/03/18 12:18:21;;;;;;;37.30;6.65;;;8.70;99.90;;;;;;5028506;28;20030;-53
2021/03/18 12:20:47;;;;;;;29.92;5.63;;;8.70;99.90;;;;;;5027437;28;20030;-54
2021/03/18 12:23:13;;;;;;;34.25;5.47;;;8.70;99.90;;;;;;5027988;28;20113;-55
2021/03/18 12:25:39;;;;;;;28.23;5.60;;;8.70;99.90;;;;;;5029383;28;20056;-55
2021/03/18 12:28:05;;;;;;;32.90;5.78;;;8.70;99.90;;;;;;5032015;28;20088;-54
2021/03/18 12:30:30;;;;;;;30.20;5.70;;;8.70;99.90;;;;;;5032653;28;20032;-54
2021/03/18 12:32:56;;;;;;;40.55;6.20;;;8.70;99.90;;;;;;5033191;28;20052;-57
2021/03/18 12:35:23;;;;;;;37.13;5.63;;;8.70;99.90;;;;;;5030938;28;20044;-56
2021/03/18 12:37:52;;;;;;;31.08;5.95;;;8.70;99.90;;;;;;5032974;28;20112;-55
2021/03/18 12:40:20;;;;;;;27.67;6.00;;;8.70;99.90;;;;;;5029094;28;20029;-56
2021/03/18 12:42:46;;;;;;;28.90;5.55;;;8.70;99.90;;;;;;5031208;28;20527;-57
2021/03/18 12:45:14;;;;;;;29.35;5.88;;;8.70;99.90;;;;;;5031478;28;20108;-57
2021/03/18 12:47:41;;;;;;;29.60;6.03;;;8.90;99.90;;;;;;5032093;28;20501;-57
2021/03/18 12:50:09;;;;;;;30.52;6.28;;;9.00;99.90;;;;;;5031448;28;20037;-54
2021/03/18 12:52:35;;;;;;;29.23;5.68;;;9.20;99.90;;;;;;5031550;28;20032;-51
2021/03/18 12:55:01;;;;;;;29.23;5.43;;;9.10;99.90;;;;;;5031465;28;20021;-55
2021/03/18 12:57:27;;;;;;;24.40;5.10;;;9.00;99.90;;;;;;5032095;28;20404;-54
2021/03/18 12:59:52;;;;;;;36.00;6.70;;;9.00;99.90;;;;;;5032243;28;20033;-57